Madeline — WDF2406 — position and weather

sailwx.info

Track history (hours):
 
Tides and Currents Weather Stations Pressure Air Temp Water Temp Dewpoint Dewpoint Depression Visibility Wind Speed Wind Dir Waves Ship Positions

Madeline

Owner: Enterprise Marine Services, LLC, San Antonio, TX. More information available from US FCC via Universal Licensing System and Coast Guard Vessel Documentation Center.

Last reported at 2016-Dec-03 21:22 UTC. Time now 2016-Dec-04 08:13 UTC.
Position N 29°47' W 095°04'.

; draft 3 m.

Type: Ship (hazmat cat B). MMSI: 367350460.

Date/timePositionNaut miles runAvg speedWind from/ knotsBaromVisibWave heightAir tempDewpointWater temp
2016-Dec-03 21:22N 29°47' W 095°04'1 1.2
2016-Dec-03 20:28N 29°47' W 095°05'0 0.2
2016-Dec-03 18:33N 29°47' W 095°05'  
2016-Nov-29 09:11N 29°47' W 095°04'0 0.0
2016-Nov-29 08:31N 29°47' W 095°04'0 0.0
2016-Nov-29 07:33N 29°47' W 095°04'0 0.0
2016-Nov-29 06:32N 29°47' W 095°04'0 0.0
2016-Nov-29 04:20N 29°47' W 095°04'0 0.0
2016-Nov-29 03:22N 29°47' W 095°04'0 0.0
2016-Nov-29 02:30N 29°47' W 095°04'0 0.0
2016-Nov-29 01:33N 29°47' W 095°04'0 0.0
2016-Nov-29 00:30N 29°47' W 095°04'0 0.0
2016-Nov-28 23:33N 29°47' W 095°04'2 0.1
2016-Nov-27 20:04N 29°46' W 095°05'0 0.0
2016-Nov-27 02:31N 29°46' W 095°05'1 0.5
2016-Nov-27 01:19N 29°46' W 095°05'1 1.1
2016-Nov-27 00:11N 29°46' W 095°06'0 0.0
2016-Nov-26 23:26N 29°46' W 095°06'0 0.0
2016-Nov-26 22:16N 29°46' W 095°06'0 0.0
2016-Nov-26 19:30N 29°46' W 095°06'0 0.0
2016-Nov-26 17:29N 29°46' W 095°06'2 0.6
2016-Nov-26 14:33N 29°45' W 095°06'6 6.1
2016-Nov-26 13:32N 29°44' W 095°13'0 0.0
2016-Nov-26 09:21N 29°44' W 095°13'4 0.3
2016-Nov-25 16:32N 29°44' W 095°09'4 1.8
2016-Nov-25 14:32N 29°46' W 095°05'1 0.2
2016-Nov-25 08:08N 29°46' W 095°06'  
Track history (hours):
 
Tides and Currents Weather Stations Pressure Air Temp Water Temp Dewpoint Dewpoint Depression Visibility Wind Speed Wind Dir Waves Ship Positions

Madeline

Owner: Enterprise Marine Services, LLC, San Antonio, TX. More information available from US FCC via Universal Licensing System and Coast Guard Vessel Documentation Center.

Last reported at 2016-Dec-03 21:22 UTC. Time now 2016-Dec-04 08:13 UTC.
Position N 29°47' W 095°04'.

; draft 3 m.

Type: Ship (hazmat cat B). MMSI: 367350460.

Date/timePositionNaut miles runAvg speedWind from/ knotsBaromVisibWave heightAir tempDewpointWater temp
2016-Dec-03 21:22N 29°47' W 095°04'1 1.2
2016-Dec-03 20:28N 29°47' W 095°05'0 0.2
2016-Dec-03 18:33N 29°47' W 095°05'  
2016-Nov-29 09:11N 29°47' W 095°04'0 0.0
2016-Nov-29 08:31N 29°47' W 095°04'0 0.0
2016-Nov-29 07:33N 29°47' W 095°04'0 0.0
2016-Nov-29 06:32N 29°47' W 095°04'0 0.0
2016-Nov-29 04:20N 29°47' W 095°04'0 0.0
2016-Nov-29 03:22N 29°47' W 095°04'0 0.0
2016-Nov-29 02:30N 29°47' W 095°04'0 0.0
2016-Nov-29 01:33N 29°47' W 095°04'0 0.0
2016-Nov-29 00:30N 29°47' W 095°04'0 0.0
2016-Nov-28 23:33N 29°47' W 095°04'2 0.1
2016-Nov-27 20:04N 29°46' W 095°05'0 0.0
2016-Nov-27 02:31N 29°46' W 095°05'1 0.5
2016-Nov-27 01:19N 29°46' W 095°05'1 1.1
2016-Nov-27 00:11N 29°46' W 095°06'0 0.0
2016-Nov-26 23:26N 29°46' W 095°06'0 0.0
2016-Nov-26 22:16N 29°46' W 095°06'0 0.0
2016-Nov-26 19:30N 29°46' W 095°06'0 0.0
2016-Nov-26 17:29N 29°46' W 095°06'2 0.6
2016-Nov-26 14:33N 29°45' W 095°06'6 6.1
2016-Nov-26 13:32N 29°44' W 095°13'0 0.0
2016-Nov-26 09:21N 29°44' W 095°13'4 0.3
2016-Nov-25 16:32N 29°44' W 095°09'4 1.8
2016-Nov-25 14:32N 29°46' W 095°05'1 0.2
2016-Nov-25 08:08N 29°46' W 095°06'  

Dump ship's entire track history